createdAt,value
2019-04-19T00:01:02.603Z,0
2019-04-19T00:02:02.851Z,0
2019-04-19T00:02:58.149Z,0
2019-04-19T00:04:03.278Z,0
2019-04-19T00:05:00.424Z,0
2019-04-19T00:05:58.158Z,0
2019-04-19T00:07:03.183Z,0
2019-04-19T00:08:15.159Z,0
2019-04-19T00:09:12.778Z,0
2019-04-19T00:10:03.903Z,0
2019-04-19T00:11:11.543Z,0
2019-04-19T00:12:10.644Z,0
2019-04-19T00:13:01.574Z,0
2019-04-19T00:13:57.874Z,0
2019-04-19T00:14:56.891Z,0
2019-04-19T00:15:56.813Z,0
2019-04-19T00:16:57.568Z,0
2019-04-19T00:18:04.256Z,0
2019-04-19T00:19:19.456Z,0
2019-04-19T00:20:21.781Z,0
2019-04-19T00:21:18.089Z,0
2019-04-19T00:22:18.359Z,0
2019-04-19T00:23:08.316Z,0
2019-04-19T00:23:58.316Z,0
2019-04-19T00:24:57.176Z,0
2019-04-19T00:25:58.216Z,0
2019-04-19T00:26:57.280Z,0
2019-04-19T00:27:59.713Z,0
2019-04-19T00:29:02.375Z,0
2019-04-19T00:30:05.733Z,0
2019-04-19T00:31:13.966Z,0
2019-04-19T00:32:16.588Z,0
2019-04-19T00:33:11.155Z,0
2019-04-19T00:33:59.587Z,0
2019-04-19T00:34:58.897Z,0
2019-04-19T00:35:58.195Z,0
2019-04-19T00:36:59.476Z,0
2019-04-19T00:38:03.100Z,0
2019-04-19T00:39:18.349Z,0
2019-04-19T00:40:15.267Z,0
2019-04-19T00:41:12.706Z,0
2019-04-19T00:42:16.137Z,0
2019-04-19T00:43:07.212Z,0
2019-04-19T00:44:10.305Z,0
2019-04-19T00:45:18.397Z,0
2019-04-19T00:46:15.672Z,0
2019-04-19T00:47:11.815Z,0
2019-04-19T00:48:08.252Z,0
2019-04-19T00:49:10.039Z,0
2019-04-19T00:50:12.412Z,0
2019-04-19T00:51:10.875Z,0
2019-04-19T00:52:12.218Z,0
2019-04-19T00:53:10.986Z,0
2019-04-19T00:54:10.539Z,0
2019-04-19T00:55:07.777Z,0
2019-04-19T00:56:06.379Z,0
2019-04-19T00:57:04.605Z,0
2019-04-19T00:58:06.865Z,0
2019-04-19T00:59:04.088Z,0
2019-04-19T00:59:59.767Z,0
2019-04-19T01:01:05.810Z,0
2019-04-19T01:02:05.377Z,0
2019-04-19T01:03:00.839Z,0
2019-04-19T01:03:59.269Z,0
2019-04-19T01:05:04.400Z,0
2019-04-19T01:06:05.328Z,0
2019-04-19T01:07:02.484Z,0
2019-04-19T01:08:06.179Z,0
2019-04-19T01:09:13.772Z,0
2019-04-19T01:10:14.614Z,0
2019-04-19T01:11:12.524Z,0
2019-04-19T01:12:14.755Z,0
2019-04-19T01:13:10.485Z,0
2019-04-19T01:14:13.681Z,0
2019-04-19T01:15:09.199Z,0
2019-04-19T01:16:08.652Z,0
2019-04-19T01:17:11.030Z,0
2019-04-19T01:18:14.615Z,0
2019-04-19T01:19:04.703Z,0
2019-04-19T01:20:03.875Z,0
2019-04-19T01:21:00.564Z,0
2019-04-19T01:22:01.708Z,0
2019-04-19T01:23:05.589Z,0
2019-04-19T01:24:02.172Z,0
2019-04-19T01:25:02.364Z,0
2019-04-19T01:26:04.994Z,0
2019-04-19T01:27:00.594Z,0
2019-04-19T01:28:04.995Z,0
2019-04-19T01:29:04.681Z,0
2019-04-19T01:30:01.032Z,0
2019-04-19T01:30:59.054Z,0
2019-04-19T01:32:05.042Z,0
2019-04-19T01:33:02.710Z,0
2019-04-19T01:34:02.750Z,0
2019-04-19T01:35:06.250Z,0
2019-04-19T01:35:59.959Z,0
2019-04-19T01:36:59.094Z,0
2019-04-19T01:38:03.912Z,0
2019-04-19T01:39:17.421Z,0
2019-04-19T01:40:12.900Z,0
2019-04-19T01:41:16.848Z,0
2019-04-19T01:42:16.036Z,0
2019-04-19T01:43:15.649Z,0
2019-04-19T01:44:23.538Z,0
2019-04-19T01:45:09.798Z,0
2019-04-19T01:46:13.738Z,0
2019-04-19T01:47:11.241Z,0
2019-04-19T01:48:20.102Z,0
2019-04-19T01:49:09.350Z,0
2019-04-19T01:50:12.143Z,0
2019-04-19T01:51:15.680Z,0
2019-04-19T01:52:14.934Z,0
2019-04-19T01:53:20.405Z,0
2019-04-19T01:54:16.124Z,0
2019-04-19T01:55:09.378Z,0
2019-04-19T01:56:06.233Z,0
2019-04-19T01:57:03.351Z,0
2019-04-19T01:58:06.499Z,0
2019-04-19T01:59:03.076Z,0
2019-04-19T02:00:01.799Z,0
2019-04-19T02:01:03.024Z,0
2019-04-19T02:02:07.084Z,0
2019-04-19T02:03:03.331Z,0
2019-04-19T02:04:01.056Z,0
2019-04-19T02:05:06.759Z,0
2019-04-19T02:06:04.785Z,0
2019-04-19T02:07:00.615Z,0
2019-04-19T02:08:05.220Z,0
2019-04-19T02:09:02.006Z,0
2019-04-19T02:10:12.907Z,0
2019-04-19T02:11:07.036Z,0
2019-04-19T02:12:14.368Z,0
2019-04-19T02:13:12.011Z,0
2019-04-19T02:14:08.435Z,0
2019-04-19T02:15:06.177Z,0
2019-04-19T02:16:07.772Z,0
2019-04-19T02:17:04.747Z,0
2019-04-19T02:18:00.998Z,0
2019-04-19T02:19:06.270Z,0
2019-04-19T02:20:05.190Z,0
2019-04-19T02:21:00.810Z,0
2019-04-19T02:22:07.108Z,0
2019-04-19T02:23:06.137Z,0
2019-04-19T02:24:02.498Z,0
2019-04-19T02:25:02.537Z,0
2019-04-19T02:26:06.381Z,0
2019-04-19T02:27:04.656Z,0
2019-04-19T02:28:01.003Z,0
2019-04-19T02:29:05.189Z,0
2019-04-19T02:30:09.331Z,0
2019-04-19T02:31:18.332Z,0
2019-04-19T02:32:40.668Z,0
2019-04-19T02:33:28.876Z,0
2019-04-19T02:34:39.055Z,0
2019-04-19T02:35:21.761Z,0
2019-04-19T02:36:35.263Z,0
2019-04-19T02:37:37.437Z,0
2019-04-19T02:38:28.587Z,0
2019-04-19T02:39:28.551Z,0
2019-04-19T02:40:52.170Z,0
2019-04-19T02:41:31.665Z,0
2019-04-19T02:43:35.497Z,0
2019-04-19T02:44:23.498Z,0
2019-04-19T02:45:22.091Z,0
2019-04-19T02:47:36.517Z,0
2019-04-19T02:48:35.401Z,0
2019-04-19T02:49:35.394Z,0
2019-04-19T02:52:32.988Z,0
2019-04-19T02:53:29.375Z,0
2019-04-19T02:55:18.663Z,0
2019-04-19T02:56:44.255Z,0
2019-04-19T02:57:39.182Z,0
2019-04-19T02:58:23.403Z,0
2019-04-19T03:00:41.664Z,0
2019-04-19T03:01:44.123Z,0
2019-04-19T03:02:39.705Z,0
2019-04-19T03:03:26.927Z,0
2019-04-19T03:04:36.108Z,0
2019-04-19T03:05:26.996Z,0
2019-04-19T03:06:16.274Z,0
2019-04-19T03:07:04.649Z,0
2019-04-19T03:08:01.821Z,0
2019-04-19T03:09:01.014Z,0
2019-04-19T03:10:04.828Z,0
2019-04-19T03:11:11.496Z,0
2019-04-19T03:12:16.430Z,0
2019-04-19T03:13:16.964Z,0
2019-04-19T03:14:16.199Z,0
2019-04-19T03:15:13.663Z,0
2019-04-19T03:16:25.056Z,0
2019-04-19T03:17:17.206Z,0
2019-04-19T03:18:23.094Z,0
2019-04-19T03:19:13.175Z,0
2019-04-19T03:20:16.290Z,0
2019-04-19T03:21:20.277Z,0
2019-04-19T03:22:20.143Z,0
2019-04-19T03:23:17.438Z,0
2019-04-19T03:24:14.014Z,0
2019-04-19T03:25:18.098Z,0
2019-04-19T03:26:19.464Z,0
2019-04-19T03:27:09.528Z,0
2019-04-19T03:28:15.010Z,0
2019-04-19T03:29:10.825Z,0
2019-04-19T03:30:14.066Z,0
2019-04-19T03:33:24.729Z,0
2019-04-19T03:34:30.082Z,0
2019-04-19T03:35:13.909Z,0
2019-04-19T03:36:19.577Z,0
2019-04-19T03:37:23.756Z,0
2019-04-19T03:38:15.493Z,0
2019-04-19T03:39:22.770Z,0
2019-04-19T03:40:34.367Z,0
2019-04-19T03:41:29.169Z,0
2019-04-19T03:42:19.897Z,0
2019-04-19T03:43:25.112Z,0
2019-04-19T03:44:20.933Z,0
2019-04-19T03:45:17.282Z,0
2019-04-19T03:46:45.684Z,1
2019-04-19T03:47:20.778Z,1
2019-04-19T03:48:20.769Z,1
2019-04-19T03:49:23.340Z,0
2019-04-19T03:50:19.716Z,1
2019-04-19T03:51:17.787Z,1
2019-04-19T03:52:19.934Z,1
2019-04-19T03:53:17.214Z,1
2019-04-19T03:54:23.175Z,1
2019-04-19T03:55:23.753Z,2
2019-04-19T03:56:20.367Z,2
2019-04-19T03:57:15.205Z,2
2019-04-19T03:58:09.902Z,2
2019-04-19T03:59:03.050Z,3
2019-04-19T04:00:02.706Z,3
2019-04-19T04:01:02.528Z,4
2019-04-19T04:02:02.891Z,5
2019-04-19T04:03:08.709Z,6
2019-04-19T04:04:08.607Z,7
2019-04-19T04:05:07.446Z,8
2019-04-19T04:06:03.881Z,10
2019-04-19T04:07:06.748Z,11
2019-04-19T04:08:10.053Z,13
2019-04-19T04:09:06.707Z,16
2019-04-19T04:10:04.868Z,18
2019-04-19T04:11:07.952Z,21
2019-04-19T04:12:19.451Z,25
2019-04-19T04:13:17.410Z,27
2019-04-19T04:14:14.823Z,33
2019-04-19T04:15:13.806Z,38
2019-04-19T04:16:17.097Z,44
2019-04-19T04:17:03.872Z,50
2019-04-19T04:18:02.844Z,57
2019-04-19T04:19:03.754Z,63
2019-04-19T04:20:03.695Z,71
2019-04-19T04:21:03.810Z,82
2019-04-19T04:22:06.356Z,92
2019-04-19T04:23:10.400Z,102
2019-04-19T04:24:12.744Z,114
2019-04-19T04:25:11.543Z,123
2019-04-19T04:26:09.839Z,138
2019-04-19T04:27:09.409Z,151
2019-04-19T04:28:17.308Z,165
2019-04-19T04:29:11.937Z,179
2019-04-19T04:30:15.091Z,194
2019-04-19T04:31:14.993Z,208
2019-04-19T04:32:12.425Z,226
2019-04-19T04:33:12.907Z,244
2019-04-19T04:34:20.439Z,263
2019-04-19T04:35:19.263Z,284
2019-04-19T04:36:24.869Z,300
2019-04-19T04:37:20.252Z,323
2019-04-19T04:38:14.203Z,346
2019-04-19T04:39:05.015Z,370
2019-04-19T04:40:04.244Z,386
2019-04-19T04:41:06.962Z,405
2019-04-19T04:42:15.587Z,432
2019-04-19T04:43:18.779Z,464
2019-04-19T04:44:21.852Z,479
2019-04-19T04:45:38.349Z,503
2019-04-19T04:46:26.699Z,528
2019-04-19T04:47:23.900Z,550
2019-04-19T04:48:27.433Z,577
2019-04-19T04:49:34.216Z,599
2019-04-19T04:50:30.202Z,611
2019-04-19T04:51:24.918Z,662
2019-04-19T04:52:14.953Z,655
2019-04-19T04:53:06.765Z,687
2019-04-19T04:54:06.164Z,728
2019-04-19T04:55:05.172Z,739
2019-04-19T04:56:07.339Z,749
2019-04-19T04:57:10.014Z,784
2019-04-19T04:58:11.604Z,831
2019-04-19T04:59:11.333Z,821
2019-04-19T05:00:07.866Z,837
2019-04-19T05:01:10.773Z,889
2019-04-19T05:02:17.216Z,913
2019-04-19T05:03:20.831Z,938
2019-04-19T05:04:18.357Z,950
2019-04-19T05:05:24.417Z,962
2019-04-19T05:06:25.312Z,989
2019-04-19T05:07:27.896Z,1005
2019-04-19T05:08:24.034Z,1039
2019-04-19T05:09:27.757Z,1080
2019-04-19T05:10:24.592Z,1093
2019-04-19T05:11:24.235Z,1087
2019-04-19T05:12:36.243Z,1097
2019-04-19T05:13:43.162Z,1145
2019-04-19T05:14:27.297Z,1176
2019-04-19T05:15:26.143Z,1200
2019-04-19T05:16:32.212Z,1210
2019-04-19T05:18:38.754Z,1238
2019-04-19T05:19:22.175Z,1276
2019-04-19T05:20:27.135Z,1298
2019-04-19T05:21:27.035Z,1295
2019-04-19T05:22:21.986Z,1312
2019-04-19T05:23:25.892Z,1340
2019-04-19T05:24:25.187Z,1365
2019-04-19T05:25:50.564Z,1377
2019-04-19T05:26:38.486Z,1387
2019-04-19T05:27:32.670Z,1399
2019-04-19T05:28:27.160Z,1417
2019-04-19T05:29:19.502Z,1465
2019-04-19T05:30:11.151Z,1493
2019-04-19T05:31:12.837Z,1523
2019-04-19T05:32:16.226Z,1525
2019-04-19T05:33:19.514Z,1534
2019-04-19T05:34:24.858Z,1569
2019-04-19T05:35:22.254Z,1560
2019-04-19T05:36:28.898Z,1553
2019-04-19T05:37:22.056Z,1556
2019-04-19T05:38:30.293Z,1569
2019-04-19T05:39:31.222Z,1606
2019-04-19T05:40:27.599Z,1640
2019-04-19T05:41:26.779Z,1670
2019-04-19T05:42:30.167Z,1705
2019-04-19T05:43:47.211Z,1710
2019-04-19T05:45:13.941Z,1743
2019-04-19T05:45:36.431Z,1755
2019-04-19T05:46:34.777Z,1739
2019-04-19T05:47:25.756Z,1752
2019-04-19T05:48:23.398Z,1774
2019-04-19T05:49:26.151Z,1789
2019-04-19T05:50:29.944Z,1796
2019-04-19T05:51:33.567Z,1808
2019-04-19T05:52:28.457Z,1828
2019-04-19T05:53:22.059Z,1846
2019-04-19T05:54:15.237Z,1854
2019-04-19T05:55:13.173Z,1893
2019-04-19T05:56:13.649Z,1921
2019-04-19T05:57:30.755Z,1949
2019-04-19T05:58:21.030Z,1975
2019-04-19T05:59:23.010Z,1982
2019-04-19T06:00:25.540Z,1991
2019-04-19T06:01:30.101Z,1981
2019-04-19T06:02:24.278Z,1977
2019-04-19T06:03:19.638Z,1974
2019-04-19T06:04:31.034Z,1960
2019-04-19T06:05:33.666Z,1985
2019-04-19T06:06:37.117Z,2034
2019-04-19T06:07:29.919Z,2052
2019-04-19T06:08:20.724Z,2055
2019-04-19T06:09:15.401Z,2072
2019-04-19T06:10:15.466Z,2077
2019-04-19T06:11:21.227Z,2088
2019-04-19T06:12:19.632Z,2107
2019-04-19T06:13:16.833Z,2136
2019-04-19T06:14:38.227Z,2153
2019-04-19T06:15:36.393Z,2158
2019-04-19T06:16:30.187Z,2183
2019-04-19T06:17:30.314Z,2214
2019-04-19T06:18:27.833Z,2261
2019-04-19T06:19:30.929Z,2256
2019-04-19T06:20:29.958Z,2276
2019-04-19T06:21:32.509Z,2265
2019-04-19T06:22:32.566Z,2272
2019-04-19T06:23:37.972Z,2298
2019-04-19T06:24:36.176Z,2314
2019-04-19T06:25:38.917Z,2314
2019-04-19T06:27:43.237Z,2355
2019-04-19T06:28:43.467Z,2358
2019-04-19T06:29:43.484Z,2351
2019-04-19T06:30:36.027Z,2389
2019-04-19T06:31:39.279Z,2407
2019-04-19T06:32:38.559Z,2395
2019-04-19T06:33:31.413Z,2416
2019-04-19T06:34:35.966Z,2435
2019-04-19T06:35:29.264Z,2435
2019-04-19T06:36:19.128Z,2457
2019-04-19T06:37:21.977Z,2453
2019-04-19T06:38:18.236Z,2466
2019-04-19T06:39:18.339Z,2482
2019-04-19T06:40:23.089Z,2486
2019-04-19T06:41:22.023Z,2495
2019-04-19T06:42:29.363Z,2507
2019-04-19T06:43:32.424Z,2530
2019-04-19T06:44:34.029Z,2536
2019-04-19T06:45:34.244Z,2553
2019-04-19T06:46:31.689Z,2581
2019-04-19T06:47:25.420Z,2578
2019-04-19T06:48:21.787Z,2574
2019-04-19T06:49:23.389Z,2571
2019-04-19T06:50:22.895Z,2584
2019-04-19T06:51:28.199Z,2587
2019-04-19T06:52:24.722Z,2600
2019-04-19T06:53:18.849Z,2574
2019-04-19T06:54:24.651Z,2583
2019-04-19T06:55:24.679Z,2617
2019-04-19T06:56:25.577Z,2614
2019-04-19T06:57:27.040Z,2593
2019-04-19T06:58:23.925Z,2611
2019-04-19T06:59:32.218Z,2657
2019-04-19T07:00:30.126Z,2685
2019-04-19T07:01:30.058Z,2684
2019-04-19T07:02:20.019Z,2689
2019-04-19T07:03:19.578Z,2713
2019-04-19T07:04:19.046Z,2682
2019-04-19T07:05:33.417Z,2701
2019-04-19T07:06:35.894Z,2713
2019-04-19T07:07:33.040Z,2729
2019-04-19T07:09:44.287Z,2747
2019-04-19T07:11:45.893Z,2813
2019-04-19T07:12:39.878Z,2829
2019-04-19T07:13:32.189Z,2836
2019-04-19T07:14:24.808Z,2846
2019-04-19T07:16:39.013Z,2849
2019-04-19T07:17:37.471Z,2843
2019-04-19T07:18:33.447Z,2853
2019-04-19T07:19:38.505Z,2855
2019-04-19T07:20:33.572Z,2877
2019-04-19T07:21:36.690Z,2901
2019-04-19T07:22:38.606Z,2898
2019-04-19T07:23:43.402Z,2903
2019-04-19T07:24:44.099Z,2900
2019-04-19T07:25:59.152Z,2925
2019-04-19T07:26:42.160Z,2930
2019-04-19T07:27:33.941Z,2939
2019-04-19T07:28:26.769Z,2949
2019-04-19T07:29:23.300Z,2961
2019-04-19T07:30:22.531Z,3000
2019-04-19T07:31:21.683Z,3023
2019-04-19T07:32:28.854Z,3022
2019-04-19T07:33:31.114Z,2997
2019-04-19T07:34:36.940Z,2983
2019-04-19T07:35:46.764Z,2972
2019-04-19T07:36:44.265Z,2994
2019-04-19T07:37:39.447Z,3025
2019-04-19T07:38:45.523Z,3061
2019-04-19T07:39:45.366Z,3110
2019-04-19T07:40:42.343Z,3127
2019-04-19T07:41:37.471Z,3170
2019-04-19T07:42:38.641Z,3184
2019-04-19T07:43:38.352Z,3160
2019-04-19T07:44:31.541Z,3142
2019-04-19T07:45:28.546Z,3156
2019-04-19T07:46:44.085Z,3180
2019-04-19T07:47:33.739Z,3216
2019-04-19T07:48:25.508Z,3259
2019-04-19T07:49:25.213Z,3253
2019-04-19T07:50:27.739Z,3287
2019-04-19T07:51:30.726Z,3275
2019-04-19T07:52:27.492Z,3274
2019-04-19T07:53:31.941Z,3310
2019-04-19T07:54:28.791Z,3379
2019-04-19T07:55:24.485Z,3425
2019-04-19T07:56:38.672Z,3459
2019-04-19T07:59:45.093Z,3584
2019-04-19T08:01:07.608Z,3582
2019-04-19T08:02:01.305Z,3761
2019-04-19T08:05:54.155Z,3947
2019-04-19T08:06:48.533Z,3960
2019-04-19T08:10:03.273Z,4143
2019-04-19T08:12:49.176Z,38152
2019-04-19T08:13:57.699Z,38240
2019-04-19T08:17:58.500Z,37592
2019-04-19T08:27:33.133Z,44176
2019-04-19T08:28:36.148Z,36864
2019-04-19T08:29:38.297Z,22720
2019-04-19T08:30:34.573Z,17784
2019-04-19T08:31:28.202Z,32232
2019-04-19T08:32:28.131Z,47432
2019-04-19T08:33:27.507Z,50048
2019-04-19T08:34:28.201Z,37016
2019-04-19T08:35:31.768Z,31776
2019-04-19T08:36:32.934Z,16144
2019-04-19T08:37:35.467Z,20688
2019-04-19T08:38:30.441Z,32232
2019-04-19T08:39:44.565Z,36120
2019-04-19T08:40:49.767Z,27888
2019-04-19T08:41:46.042Z,18528
2019-04-19T08:42:46.776Z,10769
2019-04-19T08:43:44.866Z,17144
2019-04-19T08:44:40.256Z,19160
2019-04-19T08:45:30.199Z,27800
2019-04-19T08:46:28.562Z,30536
2019-04-19T08:47:35.525Z,37704
2019-04-19T08:48:39.062Z,23904
2019-04-19T08:49:35.067Z,15632
2019-04-19T08:50:30.882Z,11746
2019-04-19T08:51:33.315Z,7880
2019-04-19T08:52:33.433Z,10507
2019-04-19T08:53:42.454Z,10956
2019-04-19T08:54:52.026Z,19048
2019-04-19T08:55:48.698Z,10573
2019-04-19T08:56:40.885Z,17688
2019-04-19T08:57:32.203Z,14168
2019-04-19T08:58:48.529Z,16528
2019-04-19T09:00:10.951Z,14312
2019-04-19T09:00:57.380Z,16040
2019-04-19T09:01:50.485Z,13345
2019-04-19T09:02:45.009Z,10928
2019-04-19T09:03:51.002Z,12081
2019-04-19T09:04:49.312Z,17104
2019-04-19T09:05:54.533Z,21872
2019-04-19T09:07:53.390Z,41600
2019-04-19T09:08:45.805Z,42064
2019-04-19T09:10:01.074Z,31688
2019-04-19T09:10:51.866Z,28336
2019-04-19T09:11:53.303Z,25560
2019-04-19T09:12:57.460Z,28312
2019-04-19T09:13:49.166Z,49168
2019-04-19T09:14:51.757Z,29392
2019-04-19T09:15:42.314Z,8215
2019-04-19T09:16:57.375Z,21512
2019-04-19T09:18:17.749Z,23560
2019-04-19T09:18:55.551Z,32240
2019-04-19T09:20:50.312Z,17840
2019-04-19T09:21:44.507Z,24992
2019-04-19T09:22:44.804Z,29624
2019-04-19T09:23:42.328Z,27880
2019-04-19T09:24:43.968Z,24864
2019-04-19T09:25:43.939Z,34024
2019-04-19T09:26:48.157Z,26024
2019-04-19T09:27:54.598Z,36616
2019-04-19T09:28:54.001Z,23104
2019-04-19T09:29:54.713Z,32560
2019-04-19T09:30:51.986Z,25584
2019-04-19T09:31:44.929Z,29480
2019-04-19T09:32:37.128Z,34664
2019-04-19T09:33:37.298Z,21896
2019-04-19T09:34:35.063Z,22344
2019-04-19T09:35:38.356Z,17720
2019-04-19T09:36:43.159Z,33656
2019-04-19T09:37:46.326Z,25904
2019-04-19T09:38:50.009Z,16359
2019-04-19T09:39:45.250Z,5563
2019-04-19T09:40:44.150Z,5074
2019-04-19T09:41:42.104Z,9304
2019-04-19T09:42:46.695Z,11564
2019-04-19T09:43:49.109Z,10181
2019-04-19T09:44:41.433Z,15123
2019-04-19T09:45:36.314Z,35448
2019-04-19T09:46:35.993Z,26320
2019-04-19T09:47:36.182Z,23744
2019-04-19T09:48:51.136Z,21696
2019-04-19T09:49:47.513Z,24480
2019-04-19T09:50:49.827Z,14495
2019-04-19T09:51:50.793Z,12061
2019-04-19T09:52:59.592Z,7888
2019-04-19T09:53:58.389Z,18936
2019-04-19T09:55:03.092Z,25736
2019-04-19T09:55:55.119Z,20472
2019-04-19T09:56:53.202Z,19248
2019-04-19T09:57:59.682Z,20246
2019-04-19T09:58:49.868Z,13516
2019-04-19T09:59:40.795Z,15536
2019-04-19T10:00:38.581Z,14296
2019-04-19T10:01:44.215Z,29560
2019-04-19T10:02:44.184Z,55008
2019-04-19T10:03:43.819Z,39088
2019-04-19T10:04:38.059Z,9554
2019-04-19T10:05:37.125Z,6486
2019-04-19T10:06:38.570Z,11162
2019-04-19T10:07:37.130Z,13406
2019-04-19T10:08:37.750Z,1727
2019-04-19T10:09:38.334Z,8625
2019-04-19T10:10:38.831Z,6518
2019-04-19T10:11:39.033Z,9291
2019-04-19T10:12:37.821Z,11832
2019-04-19T10:13:37.755Z,19280
2019-04-19T10:14:37.505Z,16744
2019-04-19T10:15:38.390Z,17352
2019-04-19T10:16:37.654Z,4608
2019-04-19T10:17:38.330Z,8520
2019-04-19T10:18:49.047Z,15220
2019-04-19T10:19:38.971Z,8641
2019-04-19T10:20:38.593Z,23136
2019-04-19T10:21:40.387Z,21008
2019-04-19T10:22:39.082Z,15984
2019-04-19T10:23:38.009Z,14472
2019-04-19T10:24:38.934Z,17240
2019-04-19T10:25:45.872Z,31344
2019-04-19T10:26:40.329Z,61224
2019-04-19T10:27:39.641Z,63568
2019-04-19T10:28:38.252Z,27904
2019-04-19T10:29:41.766Z,10535
2019-04-19T10:30:40.563Z,16816
2019-04-19T10:31:39.716Z,18056
2019-04-19T10:32:40.284Z,29504
2019-04-19T10:33:47.959Z,25200
2019-04-19T10:34:40.677Z,28296
2019-04-19T10:35:38.945Z,14306
2019-04-19T10:36:38.965Z,15488
2019-04-19T10:37:39.984Z,20968
2019-04-19T10:38:40.993Z,10339
2019-04-19T10:39:41.521Z,13653
2019-04-19T10:40:41.731Z,21760
2019-04-19T10:41:40.469Z,40176
2019-04-19T10:42:39.349Z,47072
2019-04-19T10:43:39.387Z,36360
2019-04-19T10:44:40.402Z,49376
2019-04-19T10:45:41.645Z,59208
2019-04-19T10:46:40.738Z,48400
2019-04-19T10:47:41.972Z,56824
2019-04-19T10:48:40.955Z,46360
2019-04-19T10:49:48.219Z,14592
2019-04-19T10:50:45.605Z,12277
2019-04-19T10:51:41.851Z,12260
2019-04-19T10:52:39.946Z,34088
2019-04-19T10:53:39.997Z,65535
2019-04-19T10:54:41.153Z,65535
2019-04-19T10:55:42.264Z,65535
2019-04-19T10:56:40.624Z,59328
2019-04-19T10:57:41.100Z,43224
2019-04-19T10:58:41.148Z,57888
2019-04-19T10:59:40.464Z,58224
2019-04-19T11:00:40.188Z,48120
2019-04-19T11:01:41.259Z,45720
2019-04-19T11:02:40.249Z,58312
2019-04-19T11:03:41.190Z,65535
2019-04-19T11:04:40.644Z,65535
2019-04-19T11:05:40.874Z,65072
2019-04-19T11:06:41.652Z,53920
2019-04-19T11:07:41.868Z,65535
2019-04-19T11:08:40.673Z,65535
2019-04-19T11:09:41.597Z,65535
2019-04-19T11:10:40.676Z,65535
2019-04-19T11:11:41.560Z,65535
2019-04-19T11:12:40.949Z,65535
2019-04-19T11:13:42.024Z,65535
2019-04-19T11:14:41.943Z,65535
2019-04-19T11:15:42.405Z,65535
2019-04-19T11:16:41.760Z,65535
2019-04-19T11:17:41.370Z,65535
2019-04-19T11:18:41.477Z,65535
2019-04-19T11:19:54.116Z,65535
2019-04-19T11:20:46.981Z,65535
2019-04-19T11:21:43.467Z,65535
2019-04-19T11:22:43.686Z,65535
2019-04-19T11:23:41.993Z,65535
2019-04-19T11:24:41.826Z,65535
2019-04-19T11:25:44.286Z,52840
2019-04-19T11:26:43.209Z,64496
2019-04-19T11:27:42.808Z,65535
2019-04-19T11:28:43.025Z,65535
2019-04-19T11:29:42.552Z,65535
2019-04-19T11:30:41.880Z,65535
2019-04-19T11:31:41.908Z,65535
2019-04-19T11:32:42.095Z,65535
2019-04-19T11:33:43.220Z,65535
2019-04-19T11:34:43.053Z,65535
2019-04-19T11:35:43.414Z,65535
2019-04-19T11:36:42.137Z,65535
2019-04-19T11:37:43.140Z,65535
2019-04-19T11:38:43.007Z,65535
2019-04-19T11:39:43.280Z,65535
2019-04-19T11:40:42.848Z,65535
2019-04-19T11:41:43.037Z,65535
2019-04-19T11:42:43.450Z,65535
2019-04-19T11:43:43.322Z,65535
2019-04-19T11:44:43.677Z,65535
2019-04-19T11:45:42.257Z,65535
2019-04-19T11:46:43.252Z,65535
2019-04-19T11:47:42.966Z,65535
2019-04-19T11:48:43.634Z,65535
2019-04-19T11:49:45.452Z,65535
2019-04-19T11:50:42.743Z,65535
2019-04-19T11:51:43.774Z,65535
2019-04-19T11:52:43.965Z,65535
2019-04-19T11:53:43.060Z,65535
2019-04-19T11:54:44.237Z,65535
2019-04-19T11:55:42.968Z,65535
2019-04-19T11:56:50.421Z,65535
2019-04-19T11:57:44.163Z,65535
2019-04-19T11:58:43.101Z,65535
2019-04-19T11:59:48.564Z,65535
2019-04-19T12:00:45.587Z,65535
2019-04-19T12:01:43.916Z,65535
2019-04-19T12:02:44.128Z,65535
2019-04-19T12:03:43.767Z,65535
2019-04-19T12:04:44.050Z,65535
2019-04-19T12:05:44.180Z,65535
2019-04-19T12:06:44.452Z,65535
2019-04-19T12:07:44.341Z,65535
2019-04-19T12:08:44.464Z,65535
2019-04-19T12:09:44.785Z,65535
2019-04-19T12:10:44.228Z,65535
2019-04-19T12:11:44.417Z,65535
2019-04-19T12:12:45.372Z,65535
2019-04-19T12:13:44.014Z,65535
2019-04-19T12:14:44.136Z,65535
2019-04-19T12:15:46.921Z,65535
2019-04-19T12:16:44.734Z,65535
2019-04-19T12:17:44.176Z,65535
2019-04-19T12:18:45.388Z,65535
2019-04-19T12:19:50.472Z,65535
2019-04-19T12:20:45.439Z,65535
2019-04-19T12:21:45.543Z,65535
2019-04-19T12:22:46.135Z,65535
2019-04-19T12:23:44.610Z,65535
2019-04-19T12:24:44.720Z,65535
2019-04-19T12:25:45.871Z,65535
2019-04-19T12:26:45.230Z,65535
2019-04-19T12:27:45.626Z,65535
2019-04-19T12:28:45.810Z,65535
2019-04-19T12:29:47.984Z,65535
2019-04-19T12:30:50.370Z,65535
2019-04-19T12:31:46.066Z,65535
2019-04-19T12:32:45.517Z,65535
2019-04-19T12:33:45.251Z,65535
2019-04-19T12:34:46.619Z,65535
2019-04-19T12:35:47.411Z,65535
2019-04-19T12:36:46.777Z,65535
2019-04-19T12:37:47.467Z,65535
2019-04-19T12:38:46.627Z,65535
2019-04-19T12:39:45.584Z,65535
2019-04-19T12:40:45.713Z,65535
2019-04-19T12:41:46.123Z,65535
2019-04-19T12:42:46.315Z,65535
2019-04-19T12:43:45.947Z,65488
2019-04-19T12:44:46.014Z,65535
2019-04-19T12:45:47.403Z,65535
2019-04-19T12:46:47.201Z,65535
2019-04-19T12:47:47.332Z,65535
2019-04-19T12:48:47.893Z,65535
2019-04-19T12:49:53.476Z,65535
2019-04-19T12:50:47.460Z,65535
2019-04-19T12:51:46.599Z,65535
2019-04-19T12:52:46.476Z,65535
2019-04-19T12:53:49.127Z,65535
2019-04-19T12:54:47.948Z,65535
2019-04-19T12:55:48.520Z,65535
2019-04-19T12:56:47.618Z,65535
2019-04-19T12:57:48.262Z,65535
2019-04-19T12:58:48.075Z,65535
2019-04-19T12:59:47.689Z,65535
2019-04-19T13:00:48.096Z,65535
2019-04-19T13:01:48.599Z,57392
2019-04-19T13:02:49.703Z,48784
2019-04-19T13:03:48.554Z,49056
2019-04-19T13:04:48.542Z,56552
2019-04-19T13:06:46.053Z,65535
2019-04-19T13:07:47.289Z,65535
2019-04-19T13:08:45.357Z,65535
2019-04-19T13:09:45.159Z,65535
2019-04-19T13:10:45.183Z,60280
2019-04-19T13:11:45.212Z,51024
2019-04-19T13:12:46.213Z,52784
2019-04-19T13:13:46.371Z,61784
2019-04-19T13:14:45.885Z,65535
2019-04-19T13:15:46.109Z,65535
2019-04-19T13:16:46.262Z,65535
2019-04-19T13:17:46.499Z,65535
2019-04-19T13:18:45.821Z,56896
2019-04-19T13:19:45.608Z,43152
2019-04-19T13:20:46.628Z,34720
2019-04-19T13:21:47.542Z,37040
2019-04-19T13:22:46.330Z,50928
2019-04-19T13:23:46.539Z,65535
2019-04-19T13:24:46.723Z,65535
2019-04-19T13:25:47.508Z,65535
2019-04-19T13:26:45.846Z,65535
2019-04-19T13:27:50.564Z,64768
2019-04-19T13:28:47.094Z,57416
2019-04-19T13:29:46.326Z,52592
2019-04-19T13:30:52.328Z,49064
2019-04-19T13:31:47.416Z,45016
2019-04-19T13:32:47.508Z,42440
2019-04-19T13:33:46.691Z,42488
2019-04-19T13:34:47.519Z,41496
2019-04-19T13:35:46.495Z,48080
2019-04-19T13:36:47.516Z,50376
2019-04-19T13:37:47.301Z,46296
2019-04-19T13:38:46.558Z,37000
2019-04-19T13:39:46.655Z,35376
2019-04-19T13:40:47.563Z,33904
2019-04-19T13:41:47.172Z,41776
2019-04-19T13:42:46.863Z,55056
2019-04-19T13:43:48.872Z,65535
2019-04-19T13:44:47.398Z,65535
2019-04-19T13:45:48.482Z,65535
2019-04-19T13:46:47.128Z,65535
2019-04-19T13:47:47.326Z,65535
2019-04-19T13:48:48.457Z,64168
2019-04-19T13:49:46.994Z,56016
2019-04-19T13:50:48.007Z,51696
2019-04-19T13:51:48.189Z,50776
2019-04-19T13:52:47.207Z,52384
2019-04-19T13:53:47.447Z,54272
2019-04-19T13:54:48.510Z,54016
2019-04-19T13:55:46.921Z,51952
2019-04-19T13:56:47.959Z,46304
2019-04-19T13:57:47.129Z,37200
2019-04-19T13:58:47.595Z,31608
2019-04-19T13:59:52.874Z,33376
2019-04-19T14:00:49.264Z,38872
2019-04-19T14:01:48.708Z,46208
2019-04-19T14:02:47.867Z,49976
2019-04-19T14:03:48.264Z,50176
2019-04-19T14:04:47.499Z,49880
2019-04-19T14:05:47.858Z,51264
2019-04-19T14:06:48.531Z,55184
2019-04-19T14:07:48.671Z,57904
2019-04-19T14:08:47.714Z,58504
2019-04-19T14:09:47.726Z,56184
2019-04-19T14:10:48.850Z,53960
2019-04-19T14:11:47.635Z,57776